Time;durP1;ratioP1;P1;durP2;ratioP2;P2;SDS_P1;SDS_P2;PMS_P1;PMS_P2;Temp;Humidity;BMP_temperature;BMP_pressure;BME280_temperature;BME280_humidity;BME280_pressure;Samples;Min_cycle;Max_cycle;Signal;HPM_P1;HPM_P2
2021/09/05 00:01:38;;;;;;;;;;;;;;;;;;10411387;28;19919;-62
2021/09/05 00:06:35;;;;;;;;;;;;;;;;;;10412042;28;19922;-61
2021/09/05 00:11:32;;;;;;;;;;;;;;;;;;10414192;28;20031;-62
2021/09/05 00:16:30;;;;;;;;;;;;;;;;;;10409376;28;19977;-62
2021/09/05 00:21:28;;;;;;;;;;;;;;;;;;10411946;28;20284;-62
2021/09/05 00:26:25;;;;;;;;;;;;;;;;;;10412931;28;19919;-63
2021/09/05 00:31:23;;;;;;;;;;;;;;;;;;10416439;28;19995;-62
2021/09/05 00:36:20;;;;;;;;;;;;;;;;;;10425626;28;20386;-62
2021/09/05 00:41:20;;;;;;;;;;;;;;;;;;10422959;28;20007;-63
2021/09/05 00:46:17;;;;;;;;;;;;;;;;;;10418893;28;20428;-63
2021/09/05 00:51:14;;;;;;;;;;;;;;;;;;10406288;28;19919;-62
2021/09/05 00:56:12;;;;;;;;;;;;;;;;;;10399629;28;19908;-63
2021/09/05 01:01:11;;;;;;;;;;;;;;;;;;10422019;28;20349;-62
2021/09/05 01:06:09;;;;;;;;;;;;;;;;;;10413259;28;19972;-65
2021/09/05 01:11:07;;;;;;;;;;;;;;;;;;10420603;28;20058;-64
2021/09/05 01:16:05;;;;;;;;;;;;;;;;;;10419689;28;19955;-63
2021/09/05 01:21:13;;;;;;;;;;;;;;;;;;10391008;28;19908;-63
2021/09/05 01:26:28;;;;;;;;;;;;;;;;;;10413092;28;20332;-64
2021/09/05 01:31:46;;;;;;;;;;;;;;;;;;10378943;28;19916;-63
2021/09/05 01:37:03;;;;;;;;;;;;;;;;;;10421180;28;19939;-62
2021/09/05 01:42:33;;;;;;;;;;;;;;;;;;10383969;28;19978;-66
2021/09/05 01:48:09;;;;;;;;;;;;;;;;;;10393502;28;20296;-65
2021/09/05 01:53:42;;;;;;;;;;;;;;;;;;10405324;28;20300;-64
2021/09/05 01:58:59;;;;;;;;;;;;;;;;;;10423079;28;19923;-63
2021/09/05 02:04:31;;;;;;;;;;;;;;;;;;10412118;28;20023;-63
2021/09/05 02:09:47;;;;;;;;;;;;;;;;;;10418166;28;19916;-63
2021/09/05 02:15:11;;;;;;;;;;;;;;;;;;10393536;28;19920;-63
2021/09/05 02:20:29;;;;;;;;;;;;;;;;;;10402973;28;20432;-68
2021/09/05 02:25:55;;;;;;;;;;;;;;;;;;10346671;28;20383;-63
2021/09/05 02:31:13;;;;;;;;;;;;;;;;;;10387515;28;19916;-63
2021/09/05 02:36:28;;;;;;;;;;;;;;;;;;10420384;28;19916;-63
2021/09/05 02:41:35;;;;;;;;;;;;;;;;;;10416630;28;19912;-62
2021/09/05 02:46:48;;;;;;;;;;;;;;;;;;10387304;28;19916;-62
2021/09/05 02:52:09;;;;;;;;;;;;;;;;;;10385444;28;19912;-62
2021/09/05 02:57:29;;;;;;;;;;;;;;;;;;10413671;28;19961;-63
2021/09/05 03:02:42;;;;;;;;;;;;;;;;;;10371312;28;19908;-64
2021/09/05 03:08:03;;;;;;;;;;;;;;;;;;10420182;28;20433;-62
2021/09/05 03:13:35;;;;;;;;;;;;;;;;;;10351965;28;20390;-63
2021/09/05 03:18:55;;;;;;;;;;;;;;;;;;10427190;28;19998;-62
2021/09/05 03:24:11;;;;;;;;;;;;;;;;;;10412843;28;19912;-63
2021/09/05 03:29:37;;;;;;;;;;;;;;;;;;10331514;28;19934;-63
2021/09/05 03:34:54;;;;;;;;;;;;;;;;;;10394314;28;19943;-63
2021/09/05 03:40:10;;;;;;;;;;;;;;;;;;10412083;28;19912;-64
2021/09/05 03:45:33;;;;;;;;;;;;;;;;;;10402274;28;19972;-64
2021/09/05 03:50:57;;;;;;;;;;;;;;;;;;10409153;28;19924;-63
2021/09/05 03:55:54;;;;;;;;;;;;;;;;;;10406933;28;20422;-62
2021/09/05 04:00:53;;;;;;;;;;;;;;;;;;10385466;28;19948;-64
2021/09/05 04:05:50;;;;;;;;;;;;;;;;;;10395612;28;19916;-62
2021/09/05 04:10:47;;;;;;;;;;;;;;;;;;10425177;28;19978;-64
2021/09/05 04:15:45;;;;;;;;;;;;;;;;;;10405649;28;19915;-63
2021/09/05 04:20:42;;;;;;;;;;;;;;;;;;10417212;28;20293;-64
2021/09/05 04:25:40;;;;;;;;;;;;;;;;;;10387371;28;19912;-62
2021/09/05 04:30:38;;;;;;;;;;;;;;;;;;10424579;28;20388;-62
2021/09/05 04:35:35;;;;;;;;;;;;;;;;;;10407161;28;19919;-64
2021/09/05 04:40:32;;;;;;;;;;;;;;;;;;10406807;28;20363;-62
2021/09/05 04:45:29;;;;;;;;;;;;;;;;;;10381969;28;19920;-63
2021/09/05 04:50:27;;;;;;;;;;;;;;;;;;10424672;28;19922;-63
2021/09/05 04:55:24;;;;;;;;;;;;;;;;;;10406731;28;20407;-63
2021/09/05 05:00:21;;;;;;;;;;;;;;;;;;10397555;28;19922;-69
2021/09/05 05:05:18;;;;;;;;;;;;;;;;;;10363269;28;20022;-67
2021/09/05 05:10:16;;;;;;;;;;;;;;;;;;10391390;28;20251;-65
2021/09/05 05:15:13;;;;;;;;;;;;;;;;;;10386884;28;19947;-66
2021/09/05 05:20:11;;;;;;;;;;;;;;;;;;10414430;28;19912;-64
2021/09/05 05:25:09;;;;;;;;;;;;;;;;;;10390247;28;19934;-64
2021/09/05 05:30:06;;;;;;;;;;;;;;;;;;10407204;28;19920;-66
2021/09/05 05:35:03;;;;;;;;;;;;;;;;;;10392149;28;19919;-65
2021/09/05 05:40:02;;;;;;;;;;;;;;;;;;10405908;28;19912;-65
2021/09/05 05:44:59;;;;;;;;;;;;;;;;;;10397511;28;19912;-64
2021/09/05 05:49:56;;;;;;;;;;;;;;;;;;10402669;28;19942;-64
2021/09/05 05:54:54;;;;;;;;;;;;;;;;;;10414078;28;20381;-66
2021/09/05 05:59:51;;;;;;;;;;;;;;;;;;10411351;28;19919;-65
2021/09/05 06:04:48;;;;;;;;;;;;;;;;;;10387709;28;19984;-65
2021/09/05 06:09:45;;;;;;;;;;;;;;;;;;10385319;28;20660;-62
2021/09/05 06:14:43;;;;;;;;;;;;;;;;;;10375826;28;19922;-65
2021/09/05 06:19:40;;;;;;;;;;;;;;;;;;10394725;28;19911;-65
2021/09/05 06:24:37;;;;;;;;;;;;;;;;;;10397261;28;20605;-64
2021/09/05 06:29:34;;;;;;;;;;;;;;;;;;10410131;28;19912;-64
2021/09/05 06:34:32;;;;;;;;;;;;;;;;;;10378527;28;20492;-65
2021/09/05 06:39:29;;;;;;;;;;;;;;;;;;10408076;28;19912;-65
2021/09/05 06:44:26;;;;;;;;;;;;;;;;;;10415962;28;20179;-65
2021/09/05 06:49:23;;;;;;;;;;;;;;;;;;10408903;28;19916;-64
2021/09/05 06:54:21;;;;;;;;;;;;;;;;;;10412844;28;20389;-64
2021/09/05 06:59:18;;;;;;;;;;;;;;;;;;10405275;28;19915;-64
2021/09/05 07:04:15;;;;;;;;;;;;;;;;;;10409256;28;20028;-64
2021/09/05 07:09:12;;;;;;;;;;;;;;;;;;10400763;28;19916;-63
2021/09/05 07:14:09;;;;;;;;;;;;;;;;;;10392127;28;19912;-65
2021/09/05 07:19:07;;;;;;;;;;;;;;;;;;10411238;28;19916;-65
2021/09/05 07:24:04;;;;;;;;;;;;;;;;;;10404961;28;20270;-65
2021/09/05 07:29:01;;;;;;;;;;;;;;;;;;10410519;28;19961;-65
2021/09/05 07:33:58;;;;;;;;;;;;;;;;;;10401431;28;19919;-66
2021/09/05 07:38:56;;;;;;;;;;;;;;;;;;10406073;28;19912;-66
2021/09/05 07:43:53;;;;;;;;;;;;;;;;;;10398289;28;19912;-67
2021/09/05 07:48:50;;;;;;;;;;;;;;;;;;10419630;28;19923;-66
2021/09/05 07:53:47;;;;;;;;;;;;;;;;;;10412931;28;19920;-65
2021/09/05 07:58:45;;;;;;;;;;;;;;;;;;10384141;28;20365;-63
2021/09/05 08:03:42;;;;;;;;;;;;;;;;;;10413495;28;19924;-64
2021/09/05 08:08:39;;;;;;;;;;;;;;;;;;10418100;28;19972;-63
2021/09/05 08:13:36;;;;;;;;;;;;;;;;;;10414894;28;20582;-62
2021/09/05 08:18:35;;;;;;;;;;;;;;;;;;10403344;28;19922;-62
2021/09/05 08:23:32;;;;;;;;;;;;;;;;;;10391683;28;20006;-63
2021/09/05 08:28:29;;;;;;;;;;;;;;;;;;10390215;28;19920;-63
2021/09/05 08:33:27;;;;;;;;;;;;;;;;;;10391894;28;19973;-68
2021/09/05 08:38:24;;;;;;;;;;;;;;;;;;10396900;28;20453;-68
2021/09/05 08:43:22;;;;;;;;;;;;;;;;;;10409363;28;19912;-65
2021/09/05 08:48:19;;;;;;;;;;;;;;;;;;10385533;28;20374;-64
2021/09/05 08:53:16;;;;;;;;;;;;;;;;;;10420388;28;19916;-65
2021/09/05 08:58:14;;;;;;;;;;;;;;;;;;10412037;28;20022;-68
2021/09/05 09:03:13;;;;;;;;;;;;;;;;;;10392193;28;20719;-64
2021/09/05 09:08:10;;;;;;;;;;;;;;;;;;10365164;28;19919;-64
2021/09/05 09:13:08;;;;;;;;;;;;;;;;;;10393064;28;19973;-65
2021/09/05 09:18:05;;;;;;;;;;;;;;;;;;10400340;28;19919;-64
2021/09/05 09:23:02;;;;;;;;;;;;;;;;;;10371383;28;19927;-66
2021/09/05 09:28:00;;;;;;;;;;;;;;;;;;10397680;28;20280;-64
2021/09/05 09:32:57;;;;;;;;;;;;;;;;;;10393206;28;19948;-66
2021/09/05 09:37:54;;;;;;;;;;;;;;;;;;10396742;28;19963;-67
2021/09/05 09:42:51;;;;;;;;;;;;;;;;;;10359642;28;19923;-67
2021/09/05 09:47:49;;;;;;;;;;;;;;;;;;10416120;28;19916;-67
2021/09/05 09:52:46;;;;;;;;;;;;;;;;;;10419428;28;19915;-66
2021/09/05 09:57:43;;;;;;;;;;;;;;;;;;10394793;28;19965;-65
2021/09/05 10:02:42;;;;;;;;;;;;;;;;;;10414607;28;20029;-67
2021/09/05 10:07:39;;;;;;;;;;;;;;;;;;10384597;28;19923;-65
2021/09/05 10:12:37;;;;;;;;;;;;;;;;;;10381675;28;19916;-67
2021/09/05 10:17:34;;;;;;;;;;;;;;;;;;10400810;28;19922;-67
2021/09/05 10:22:31;;;;;;;;;;;;;;;;;;10401136;28;20330;-67
2021/09/05 10:27:29;;;;;;;;;;;;;;;;;;10407338;28;19924;-66
2021/09/05 10:32:26;;;;;;;;;;;;;;;;;;10395013;28;20395;-68
2021/09/05 10:37:23;;;;;;;;;;;;;;;;;;10404662;28;19920;-67
2021/09/05 10:42:21;;;;;;;;;;;;;;;;;;10383546;28;19943;-69
2021/09/05 10:47:18;;;;;;;;;;;;;;;;;;10392355;28;19920;-67
2021/09/05 10:52:15;;;;;;;;;;;;;;;;;;10395677;28;19964;-66
2021/09/05 10:57:13;;;;;;;;;;;;;;;;;;10388687;28;20282;-66
2021/09/05 11:02:10;;;;;;;;;;;;;;;;;;10397697;28;19954;-67
2021/09/05 11:07:08;;;;;;;;;;;;;;;;;;10412561;28;19916;-66
2021/09/05 11:12:08;;;;;;;;;;;;;;;;;;10404940;28;19912;-67
2021/09/05 11:17:06;;;;;;;;;;;;;;;;;;10412533;28;19939;-68
2021/09/05 11:22:03;;;;;;;;;;;;;;;;;;10400440;28;19919;-66
2021/09/05 11:27:00;;;;;;;;;;;;;;;;;;10406949;28;19922;-66
2021/09/05 11:31:58;;;;;;;;;;;;;;;;;;10398396;28;20064;-66
2021/09/05 11:36:55;;;;;;;;;;;;;;;;;;10404035;28;19916;-66
2021/09/05 11:41:53;;;;;;;;;;;;;;;;;;10395002;28;20384;-66
2021/09/05 11:46:51;;;;;;;;;;;;;;;;;;10408558;28;19923;-66
2021/09/05 11:51:49;;;;;;;;;;;;;;;;;;10393062;28;20361;-65
2021/09/05 11:56:47;;;;;;;;;;;;;;;;;;10400158;28;19928;-64
2021/09/05 12:01:44;;;;;;;;;;;;;;;;;;10410772;28;20239;-65
2021/09/05 12:06:41;;;;;;;;;;;;;;;;;;10392315;28;20020;-65
2021/09/05 12:11:40;;;;;;;;;;;;;;;;;;10397924;28;19921;-66
2021/09/05 12:16:40;;;;;;;;;;;;;;;;;;10396729;28;20018;-66
2021/09/05 12:21:38;;;;;;;;;;;;;;;;;;10395825;28;19951;-65
2021/09/05 12:26:36;;;;;;;;;;;;;;;;;;10393920;28;19919;-66
2021/09/05 12:31:35;;;;;;;;;;;;;;;;;;10397817;28;20375;-65
2021/09/05 12:36:34;;;;;;;;;;;;;;;;;;10402133;28;20030;-65
2021/09/05 12:41:32;;;;;;;;;;;;;;;;;;10415703;28;19940;-64
2021/09/05 12:46:32;;;;;;;;;;;;;;;;;;10410082;28;20270;-65
2021/09/05 12:51:30;;;;;;;;;;;;;;;;;;10400478;28;20322;-66
2021/09/05 12:56:27;;;;;;;;;;;;;;;;;;10413013;28;19920;-65
2021/09/05 13:01:25;;;;;;;;;;;;;;;;;;10414267;28;19934;-66
2021/09/05 13:06:22;;;;;;;;;;;;;;;;;;10369264;28;19927;-65
2021/09/05 13:11:20;;;;;;;;;;;;;;;;;;10397942;28;20377;-66
2021/09/05 13:16:18;;;;;;;;;;;;;;;;;;10395683;28;19923;-64
2021/09/05 13:21:16;;;;;;;;;;;;;;;;;;10410026;28;20288;-66
2021/09/05 13:26:16;;;;;;;;;;;;;;;;;;10388904;28;19919;-63
2021/09/05 13:31:16;;;;;;;;;;;;;;;;;;10426124;28;20062;-63
2021/09/05 13:36:14;;;;;;;;;;;;;;;;;;10406753;28;20326;-63
2021/09/05 13:41:11;;;;;;;;;;;;;;;;;;10412246;28;19917;-63
2021/09/05 13:46:09;;;;;;;;;;;;;;;;;;10388422;28;19912;-64
2021/09/05 13:51:10;;;;;;;;;;;;;;;;;;10398195;28;19927;-67
2021/09/05 13:56:07;;;;;;;;;;;;;;;;;;10403542;28;19915;-65
2021/09/05 14:01:05;;;;;;;;;;;;;;;;;;10412020;28;19995;-66
2021/09/05 14:06:03;;;;;;;;;;;;;;;;;;10411945;28;19952;-66
2021/09/05 14:11:00;;;;;;;;;;;;;;;;;;10394706;28;19917;-65
2021/09/05 14:15:57;;;;;;;;;;;;;;;;;;10397889;28;19927;-66
2021/09/05 14:20:55;;;;;;;;;;;;;;;;;;10421372;28;19922;-66
2021/09/05 14:25:54;;;;;;;;;;;;;;;;;;10412975;28;20435;-64
2021/09/05 14:30:57;;;;;;;;;;;;;;;;;;10391276;28;20433;-64
2021/09/05 14:56:53;;;;;;;;;;;;;;;;;;10391444;28;19912;-66
2021/09/05 15:01:58;;;;;;;;;;;;;;;;;;10389625;28;19916;-65
2021/09/05 15:10:58;;;;;;;;;;;;;;;;;;10392511;28;20002;-67
2021/09/05 15:12:16;;;;;;;;;;;;;;;;;;10396025;28;19989;-66
2021/09/05 15:17:14;;;;;;;;;;;;;;;;;;10408860;28;19969;-66
2021/09/05 15:22:24;;;;;;;;;;;;;;;;;;10409080;28;20185;-66
2021/09/05 15:27:25;;;;;;;;;;;;;;;;;;10412455;28;19916;-68
2021/09/05 15:58:11;;;;;;;;;;;;;;;;;;10403040;28;19923;-67
2021/09/05 16:18:41;;;;;;;;;;;;;;;;;;10390795;28;20463;-69
2021/09/05 16:23:39;;;;;;;;;;;;;;;;;;10390847;28;20027;-66
2021/09/05 16:28:36;;;;;;;;;;;;;;;;;;10412831;28;19916;-66
2021/09/05 16:33:41;;;;;;;;;;;;;;;;;;10408024;28;19912;-68
2021/09/05 16:43:58;;;;;;;;;;;;;;;;;;10402857;28;19958;-65
2021/09/05 16:48:57;;;;;;;;;;;;;;;;;;10385860;28;20022;-66
2021/09/05 16:53:55;;;;;;;;;;;;;;;;;;10424419;28;20211;-71
2021/09/05 16:58:54;;;;;;;;;;;;;;;;;;10432980;28;19912;-73
2021/09/05 17:03:55;;;;;;;;;;;;;;;;;;10408572;28;19912;-67
2021/09/05 17:08:52;;;;;;;;;;;;;;;;;;10426253;28;19924;-68
2021/09/05 17:13:49;;;;;;;;;;;;;;;;;;10421478;28;20031;-67
2021/09/05 17:18:47;;;;;;;;;;;;;;;;;;10395108;28;19915;-68
2021/09/05 17:23:44;;;;;;;;;;;;;;;;;;10421761;28;19916;-65
2021/09/05 17:28:42;;;;;;;;;;;;;;;;;;10412464;28;20334;-65
2021/09/05 17:33:39;;;;;;;;;;;;;;;;;;10405085;28;20446;-65
2021/09/05 17:38:37;;;;;;;;;;;;;;;;;;10392987;28;19992;-66
2021/09/05 17:43:36;;;;;;;;;;;;;;;;;;10407990;28;20013;-66
2021/09/05 17:48:35;;;;;;;;;;;;;;;;;;10393715;28;19920;-66
2021/09/05 17:53:32;;;;;;;;;;;;;;;;;;10386993;28;19912;-66
2021/09/05 17:58:30;;;;;;;;;;;;;;;;;;10411551;28;19912;-64
2021/09/05 18:03:29;;;;;;;;;;;;;;;;;;10404156;28;19916;-67
2021/09/05 18:08:26;;;;;;;;;;;;;;;;;;10405514;28;20388;-66
2021/09/05 18:13:24;;;;;;;;;;;;;;;;;;10379324;28;19923;-65
2021/09/05 18:18:23;;;;;;;;;;;;;;;;;;10382263;28;19915;-66
2021/09/05 18:23:23;;;;;;;;;;;;;;;;;;10388062;28;19912;-66
2021/09/05 18:28:20;;;;;;;;;;;;;;;;;;10407618;28;19915;-66
2021/09/05 18:33:17;;;;;;;;;;;;;;;;;;10356100;28;19916;-65
2021/09/05 18:38:15;;;;;;;;;;;;;;;;;;10410122;28;19920;-65
2021/09/05 18:43:14;;;;;;;;;;;;;;;;;;10380192;28;19924;-66
2021/09/05 18:48:11;;;;;;;;;;;;;;;;;;10389046;28;19932;-65
2021/09/05 18:53:08;;;;;;;;;;;;;;;;;;10385104;28;20373;-65
2021/09/05 18:58:07;;;;;;;;;;;;;;;;;;10389313;28;19912;-65
2021/09/05 19:03:06;;;;;;;;;;;;;;;;;;10392296;28;19916;-65
2021/09/05 19:08:04;;;;;;;;;;;;;;;;;;10407977;28;20358;-66
2021/09/05 19:13:01;;;;;;;;;;;;;;;;;;10362022;28;19915;-68
2021/09/05 19:17:59;;;;;;;;;;;;;;;;;;10387182;28;20015;-67
2021/09/05 19:22:58;;;;;;;;;;;;;;;;;;10354870;28;19912;-64
2021/09/05 19:27:56;;;;;;;;;;;;;;;;;;10395031;28;19916;-66
2021/09/05 19:32:55;;;;;;;;;;;;;;;;;;10393138;28;20304;-68
2021/09/05 19:37:52;;;;;;;;;;;;;;;;;;10396392;28;19953;-66
2021/09/05 19:42:50;;;;;;;;;;;;;;;;;;10387869;28;20049;-65
2021/09/05 19:47:49;;;;;;;;;;;;;;;;;;10395095;28;20398;-68
2021/09/05 19:52:46;;;;;;;;;;;;;;;;;;10396216;28;20073;-65
2021/09/05 19:57:44;;;;;;;;;;;;;;;;;;10374967;28;20380;-68
2021/09/05 20:02:42;;;;;;;;;;;;;;;;;;10381093;28;20296;-65
2021/09/05 20:07:40;;;;;;;;;;;;;;;;;;10411371;28;19920;-66
2021/09/05 20:12:37;;;;;;;;;;;;;;;;;;10386699;28;19938;-64
2021/09/05 20:17:35;;;;;;;;;;;;;;;;;;10400644;28;19915;-64
2021/09/05 20:22:34;;;;;;;;;;;;;;;;;;10403665;28;19990;-64
2021/09/05 20:27:31;;;;;;;;;;;;;;;;;;10373368;28;19967;-65
2021/09/05 20:32:29;;;;;;;;;;;;;;;;;;10394149;28;20286;-64
2021/09/05 20:37:26;;;;;;;;;;;;;;;;;;10381960;28;19919;-64
2021/09/05 20:42:24;;;;;;;;;;;;;;;;;;10392519;28;19916;-65
2021/09/05 20:47:21;;;;;;;;;;;;;;;;;;10408334;28;19973;-66
2021/09/05 20:52:18;;;;;;;;;;;;;;;;;;10379598;28;20351;-67
2021/09/05 20:57:15;;;;;;;;;;;;;;;;;;10407767;28;19927;-66
2021/09/05 21:02:13;;;;;;;;;;;;;;;;;;10414083;28;20002;-66
2021/09/05 21:07:10;;;;;;;;;;;;;;;;;;10382064;28;19912;-68
2021/09/05 21:12:07;;;;;;;;;;;;;;;;;;10387705;28;19912;-68
2021/09/05 21:17:05;;;;;;;;;;;;;;;;;;10391231;28;20003;-67
2021/09/05 21:22:02;;;;;;;;;;;;;;;;;;10410461;28;19913;-67
2021/09/05 21:27:00;;;;;;;;;;;;;;;;;;10385626;28;19919;-62
2021/09/05 21:31:57;;;;;;;;;;;;;;;;;;10408168;28;19922;-66
2021/09/05 21:36:54;;;;;;;;;;;;;;;;;;10377807;28;20105;-65
2021/09/05 21:41:52;;;;;;;;;;;;;;;;;;10400359;28;20001;-66
2021/09/05 21:46:49;;;;;;;;;;;;;;;;;;10405773;28;20412;-67
2021/09/05 21:51:46;;;;;;;;;;;;;;;;;;10406951;28;19923;-69
2021/09/05 21:56:43;;;;;;;;;;;;;;;;;;10401371;28;19912;-68
2021/09/05 22:01:42;;;;;;;;;;;;;;;;;;10405869;28;19918;-66
2021/09/05 22:06:39;;;;;;;;;;;;;;;;;;10391603;28;21336;-66
2021/09/05 22:11:37;;;;;;;;;;;;;;;;;;10369257;28;20326;-67
2021/09/05 22:16:34;;;;;;;;;;;;;;;;;;10399030;28;20377;-64
2021/09/05 22:21:31;;;;;;;;;;;;;;;;;;10380022;28;19962;-66
2021/09/05 22:26:28;;;;;;;;;;;;;;;;;;10400501;28;19924;-69
2021/09/05 22:31:26;;;;;;;;;;;;;;;;;;10393677;28;19920;-67
2021/09/05 22:36:23;;;;;;;;;;;;;;;;;;10398957;28;19916;-66
2021/09/05 22:41:20;;;;;;;;;;;;;;;;;;10402091;28;19937;-67
2021/09/05 22:46:17;;;;;;;;;;;;;;;;;;10398785;28;19919;-67
2021/09/05 22:51:15;;;;;;;;;;;;;;;;;;10399877;28;19954;-71
2021/09/05 22:56:12;;;;;;;;;;;;;;;;;;10399388;28;19913;-67
2021/09/05 23:01:09;;;;;;;;;;;;;;;;;;10395582;28;19923;-67
2021/09/05 23:06:06;;;;;;;;;;;;;;;;;;10406538;28;19923;-66
2021/09/05 23:11:06;;;;;;;;;;;;;;;;;;10413714;28;19927;-67
2021/09/05 23:16:03;;;;;;;;;;;;;;;;;;10381421;28;19917;-65
2021/09/05 23:21:00;;;;;;;;;;;;;;;;;;10392247;28;20368;-66
2021/09/05 23:26:00;;;;;;;;;;;;;;;;;;10419786;28;20175;-65
2021/09/05 23:30:57;;;;;;;;;;;;;;;;;;10417434;28;19970;-66
2021/09/05 23:35:54;;;;;;;;;;;;;;;;;;10411792;28;20331;-66
2021/09/05 23:40:52;;;;;;;;;;;;;;;;;;10414135;28;19918;-66
2021/09/05 23:45:49;;;;;;;;;;;;;;;;;;10409058;28;20400;-66
2021/09/05 23:50:46;;;;;;;;;;;;;;;;;;10402665;28;19916;-66
2021/09/05 23:55:46;;;;;;;;;;;;;;;;;;10414734;28;20300;-65
